ヘルシンキ/ヴァンター の空港の天気 - METARとTAF

ヘルシンキ・ヴァンター国際空港 ( EFHK / HEL ) - フィンランド ヴァンター
飛行場実況気象(Metar)
観測時間04/25 09:20 EEST (04/25 06:20 UTC)
風向・風速南南東 3m/s
視程4500m
天気現象弱い雨 もや
少しの雲 雲底高度 30m
全天の8割程度の雲 雲底高度 90m
気温6℃
湿度100%
気圧995hPa
METAREFHK 250620Z 16005KT 130V230 4500 -RA BR FEW001 BKN003 06/06 Q0995 BECMG 5000
過去の天気等 Google飛行場航空写真 Wunderground天気予報

過去48時間のMETAR

飛行場予報(TAF)
発表時間: 4/25 08:25 EEST (4/25 05:25 UTC)
予報対象時間: 25日9時 EEST ~ 26日9時 EEST
風向・風速南南東 2m/s
視程700m
天気現象
全天を覆う雲 雲底高度 30m
25日9時 EEST ~ 25日12時 EEST に徐々に
視程10km以上
全天の8割程度の雲 雲底高度 210m
25日9時 EEST ~ 25日12時 EEST に一時的に
視程700m
天気現象弱い霧雨
25日9時 EEST から 確率 30% で
視程300m
天気現象
25日12時 EEST ~ 25日14時 EEST に徐々に
全天の8割程度の雲 雲底高度 610m
25日14時 EEST ~ 25日19時 EEST に一時的に
全天の4割程度の積乱雲 雲底高度 910m
25日21時 EEST ~ 26日1時 EEST に一時的に
全天の8割程度の雲 雲底高度 430m
26日1時 EEST ~ 26日3時 EEST に徐々に
視程500m
天気現象
全天を覆う雲 鉛直視程 60m
26日6時 EEST ~ 26日9時 EEST に徐々に
視程10km以上
なし
TAF EFHK 250525Z 2506/2606 16004KT 0700 FG OVC001
BECMG 2506/2509 9999 BKN007
TEMPO 2506/2509 0700 -DZ
PROB30 2506/2509 0300 FG
BECMG 2509/2511 BKN020
TEMPO 2511/2516 SCT030CB
TEMPO 2518/2522 BKN014
BECMG 2522/2524 0500 FG VV002
BECMG 2603/2606 CAVOK